Terminal Aerodrome Forecast
Issued by NWS Pueblo, CO

Home | Current Version | Previous Version | Text Only | Print | Product List | Glossary On
Versions: 1 2 3 4 5 6 7 8 9 10 11 12 13 14 15 16 17 18 19 20 21 22 23 24 25 26 27 28 29 30 31 32 33 34 35 36 37
000
FTUS45 KPUB 282333
TAFPUB
TAF
KPUB 282333Z 2900/2924 07010KT P6SM VCSH BKN040 OVC070
      TEMPO 2900/2903 5SM -SHRA BKN020
     FM290300 05011KT 3SM -SHRASN BR OVC030
     FM290600 09014KT 3SM -SHRA BR OVC015
     FM290800 03011KT 2SM -SN BR OVC008
     FM291600 01012G22KT 3SM -SN BR OVC012
     FM291900 36015G25KT 5SM -SHRASN BKN018
     FM292100 36014KT P6SM BKN025=

USA.gov is the U.S. government's official web portal to all federal, state and local government web resources and services.